Time;durP1;ratioP1;P1;durP2;ratioP2;P2;SDS_P1;SDS_P2;PMS_P1;PMS_P2;Temp;Humidity;BMP_temperature;BMP_pressure;BME280_temperature;BME280_humidity;BME280_pressure;Samples;Min_cycle;Max_cycle;Signal;HPM_P1;HPM_P2
2024/01/30 00:00:57;;;;;;;12.90;2.60;;;;;;;17.53;41.87;102540.16;16118561;19;130312;-65
2024/01/30 00:06:23;;;;;;;16.90;2.15;;;;;;;17.53;41.89;102537.41;16117743;19;131435;-65
2024/01/30 00:11:45;;;;;;;13.95;2.33;;;;;;;17.51;41.81;102529.28;16117750;19;130416;-66
2024/01/30 00:17:07;;;;;;;18.95;2.50;;;;;;;17.51;41.83;102526.50;16117981;19;131283;-65
2024/01/30 00:22:30;;;;;;;7.32;1.92;;;;;;;17.51;41.66;102526.50;16117503;19;129808;-67
2024/01/30 00:27:52;;;;;;;14.68;1.92;;;;;;;17.52;41.48;102521.84;16118400;19;130042;-65
2024/01/30 00:33:15;;;;;;;4.90;2.05;;;;;;;17.50;41.60;102515.66;16115425;19;130451;-64
2024/01/30 00:38:37;;;;;;;10.65;1.85;;;;;;;17.47;41.78;102511.38;16115399;19;133913;-64
2024/01/30 00:43:59;;;;;;;4.55;2.17;;;;;;;17.45;41.49;102507.94;16115758;19;131419;-65
2024/01/30 00:49:21;;;;;;;6.78;1.85;;;;;;;17.43;41.17;102498.13;16115105;19;130638;-65
2024/01/30 00:54:43;;;;;;;3.58;1.40;;;;;;;17.41;41.41;102501.09;16113997;19;129626;-64
2024/01/30 01:00:08;;;;;;;6.13;1.75;;;;;;;17.39;41.38;102497.66;16111937;19;129161;-65
2024/01/30 01:05:30;;;;;;;2.73;1.70;;;;;;;17.37;41.58;102499.78;16113188;19;130853;-65
2024/01/30 01:10:52;;;;;;;3.70;1.40;;;;;;;17.35;41.54;102496.38;16113172;19;130498;-64
2024/01/30 01:16:14;;;;;;;2.33;1.40;;;;;;;17.33;41.37;102504.84;16115152;19;131788;-66
2024/01/30 01:21:37;;;;;;;2.35;1.40;;;;;;;17.31;41.73;102500.59;16115867;19;129753;-65
2024/01/30 01:26:59;;;;;;;2.85;1.40;;;;;;;17.30;41.51;102487.81;16112854;19;131016;-64
2024/01/30 01:32:22;;;;;;;5.07;1.35;;;;;;;17.29;41.60;102477.78;16110713;19;129448;-65
2024/01/30 01:37:44;;;;;;;4.05;1.30;;;;;;;17.26;41.58;102473.53;16111904;19;129886;-65
2024/01/30 01:43:06;;;;;;;1.83;1.05;;;;;;;17.24;41.33;102475.63;16114623;19;129790;-64
2024/01/30 01:48:29;;;;;;;2.28;1.50;;;;;;;17.22;41.25;102484.13;16113498;19;129730;-65
2024/01/30 01:53:51;;;;;;;3.33;1.10;;;;;;;17.20;41.63;102480.72;16114211;19;130115;-65
2024/01/30 01:59:14;;;;;;;2.47;1.00;;;;;;;17.19;41.63;102479.00;16127612;19;129689;-65
2024/01/30 02:04:36;;;;;;;2.03;1.15;;;;;;;17.18;41.32;102471.75;16143090;19;129684;-64
2024/01/30 02:09:58;;;;;;;2.47;0.95;;;;;;;17.18;41.63;102459.81;16138503;19;131073;-65
2024/01/30 02:15:20;;;;;;;2.30;0.70;;;;;;;17.19;41.34;102461.53;16141138;19;131045;-65
2024/01/30 02:20:43;;;;;;;2.33;0.43;;;;;;;17.18;41.39;102463.44;16137981;19;130694;-65
2024/01/30 02:26:05;;;;;;;0.80;0.43;;;;;;;17.18;41.50;102455.16;16137914;19;130120;-66
2024/01/30 02:31:27;;;;;;;0.82;0.43;;;;;;;17.18;41.18;102446.84;16139603;19;131575;-65
2024/01/30 02:36:49;;;;;;;0.60;0.50;;;;;;;17.17;41.40;102458.97;16133991;19;135134;-65
2024/01/30 02:42:11;;;;;;;0.95;0.43;;;;;;;17.16;41.35;102457.25;16137763;19;130642;-65
2024/01/30 02:47:33;;;;;;;0.30;0.30;;;;;;;17.16;41.35;102456.41;16134489;19;130918;-72
2024/01/30 02:52:55;;;;;;;0.40;0.40;;;;;;;17.14;41.20;102455.75;16137704;19;131066;-65
2024/01/30 02:58:17;;;;;;;0.38;0.20;;;;;;;17.12;41.15;102461.47;16131802;19;130912;-65
2024/01/30 03:03:40;;;;;;;0.30;0.30;;;;;;;17.11;41.21;102454.22;16139578;19;129639;-64
2024/01/30 03:09:03;;;;;;;0.22;0.20;;;;;;;17.08;41.25;102449.13;16129623;19;129473;-66
2024/01/30 03:14:25;;;;;;;0.55;0.35;;;;;;;17.06;41.41;102445.69;16118803;19;133558;-64
2024/01/30 03:19:47;;;;;;;0.95;0.40;;;;;;;17.03;41.55;102452.47;16122398;19;129392;-65
2024/01/30 03:25:09;;;;;;;0.50;0.40;;;;;;;17.02;41.51;102452.66;16119481;19;130505;-64
2024/01/30 03:30:32;;;;;;;0.85;0.40;;;;;;;17.01;41.51;102450.94;16123492;19;129541;-65
2024/01/30 03:35:54;;;;;;;1.00;0.40;;;;;;;16.99;41.43;102455.81;16119289;19;130363;-64
2024/01/30 03:41:15;;;;;;;0.43;0.40;;;;;;;16.97;41.36;102452.41;16119551;19;129767;-65
2024/01/30 03:46:37;;;;;;;0.77;0.57;;;;;;;16.95;41.33;102451.75;16121400;19;130041;-72
2024/01/30 03:52:00;;;;;;;1.42;0.63;;;;;;;16.93;41.63;102455.56;16121015;19;131435;-65
2024/01/30 03:57:22;;;;;;;1.05;0.63;;;;;;;16.91;41.47;102452.13;16118764;19;129503;-64
2024/01/30 04:02:44;;;;;;;2.30;0.90;;;;;;;16.90;41.05;102436.59;16112310;19;128979;-65
2024/01/30 04:08:07;;;;;;;1.70;0.60;;;;;;;16.89;41.46;102434.88;16115964;19;131306;-63
2024/01/30 04:13:29;;;;;;;1.73;1.13;;;;;;;16.88;41.39;102422.13;16117746;19;129289;-65
2024/01/30 04:18:51;;;;;;;1.48;0.80;;;;;;;16.87;41.53;102416.78;16114070;19;130418;-64
2024/01/30 04:24:13;;;;;;;1.35;0.70;;;;;;;16.85;41.47;102417.00;16114688;19;130644;-65
2024/01/30 04:29:35;;;;;;;1.13;0.55;;;;;;;16.84;41.17;102426.34;16115726;19;130169;-65
2024/01/30 04:34:58;;;;;;;1.88;0.77;;;;;;;16.82;41.21;102428.44;16114744;19;131205;-69
2024/01/30 04:40:21;;;;;;;1.98;0.75;;;;;;;16.82;40.98;102425.69;16115193;19;129315;-65
2024/01/30 04:45:43;;;;;;;1.77;0.93;;;;;;;16.80;41.26;102419.50;16115234;19;129462;-65
2024/01/30 04:51:05;;;;;;;1.48;0.70;;;;;;;16.80;41.18;102424.19;16117142;19;129569;-65
2024/01/30 04:56:26;;;;;;;1.58;0.82;;;;;;;16.79;41.11;102431.59;16113742;19;129773;-65
2024/01/30 05:01:48;;;;;;;2.28;1.05;;;;;;;16.79;41.29;102422.47;16112863;19;130134;-65
2024/01/30 05:07:11;;;;;;;3.88;1.30;;;;;;;16.76;41.01;102423.69;16112591;19;130492;-64
2024/01/30 05:12:33;;;;;;;1.35;0.95;;;;;;;16.75;41.20;102416.44;16112667;19;131173;-72
2024/01/30 05:17:55;;;;;;;2.65;1.50;;;;;;;16.74;40.62;102421.13;16112713;19;129886;-70
2024/01/30 05:23:17;;;;;;;1.88;1.40;;;;;;;16.73;40.96;102426.88;16110811;19;130518;-69
2024/01/30 05:28:38;;;;;;;2.95;1.45;;;;;;;16.72;40.65;102425.16;16115993;19;129687;-70
2024/01/30 05:34:01;;;;;;;2.45;1.20;;;;;;;16.72;40.49;102416.88;16107591;19;129796;-69
2024/01/30 05:39:23;;;;;;;2.22;1.30;;;;;;;16.71;40.57;102412.41;16106260;19;130209;-64
2024/01/30 05:44:45;;;;;;;2.80;1.20;;;;;;;16.70;40.52;102418.97;16109298;19;132067;-64
2024/01/30 05:50:07;;;;;;;1.85;1.23;;;;;;;16.69;40.66;102422.78;16108922;19;129541;-66
2024/01/30 05:55:29;;;;;;;1.60;0.93;;;;;;;16.68;40.52;102426.59;16109391;19;131517;-64
2024/01/30 06:00:51;;;;;;;2.30;1.50;;;;;;;16.67;40.66;102424.88;16108393;19;131257;-64
2024/01/30 06:06:13;;;;;;;2.15;1.50;;;;;;;16.66;40.63;102426.81;16108002;19;130685;-64
2024/01/30 06:11:35;;;;;;;1.35;1.00;;;;;;;16.70;41.02;102427.25;16106629;19;130698;-64
2024/01/30 06:16:57;;;;;;;3.20;1.38;;;;;;;16.79;41.01;102433.53;16104697;19;130525;-66
2024/01/30 06:22:19;;;;;;;4.95;1.10;;;;;;;16.93;41.16;102440.88;16107588;19;130957;-66
2024/01/30 06:27:41;;;;;;;2.00;1.13;;;;;;;17.16;41.62;102448.97;16108101;19;130709;-66
2024/01/30 06:33:03;;;;;;;3.83;1.10;;;;;;;17.40;41.59;102452.34;16113345;19;129239;-65
2024/01/30 06:38:25;;;;;;;3.08;1.05;;;;;;;17.62;41.12;102467.03;16111110;19;131027;-65
2024/01/30 06:43:47;;;;;;;6.82;1.48;;;;;;;17.82;41.12;102469.06;16111497;19;130093;-65
2024/01/30 06:49:09;;;;;;;3.80;1.50;;;;;;;17.95;40.60;102469.16;16126241;19;132811;-64
2024/01/30 06:54:32;;;;;;;3.97;1.60;;;;;;;18.11;40.27;102479.03;16126293;19;129602;-65
2024/01/30 06:59:54;;;;;;;3.67;1.70;;;;;;;18.21;40.35;102480.59;16117830;19;133206;-66
2024/01/30 07:05:17;;;;;;;2.70;1.50;;;;;;;18.28;40.16;102492.56;16117159;19;131090;-65
2024/01/30 07:10:39;;;;;;;6.35;1.55;;;;;;;18.33;39.92;102512.19;16120267;19;131753;-70
2024/01/30 07:16:04;;;;;;;9.55;1.90;;;;;;;18.35;40.01;102506.44;16112997;19;129633;-70
2024/01/30 07:21:28;;;;;;;3.60;2.05;;;;;;;18.41;40.27;102508.41;16116575;19;129561;-71
2024/01/30 07:26:50;;;;;;;6.72;1.88;;;;;;;18.38;40.57;102509.66;16118920;19;129835;-70
2024/01/30 07:32:12;;;;;;;2.58;1.30;;;;;;;18.35;40.74;102521.13;16115744;19;130384;-68
2024/01/30 07:37:34;;;;;;;3.00;1.33;;;;;;;18.32;41.23;102516.03;16116018;19;131304;-69
2024/01/30 07:42:56;;;;;;;4.88;1.80;;;;;;;18.29;41.55;102533.03;16119149;19;129919;-67
2024/01/30 07:48:18;;;;;;;3.67;1.35;;;;;;;18.27;41.79;102536.03;16119267;19;130318;-68
2024/01/30 07:53:41;;;;;;;5.78;1.90;;;;;;;18.27;41.80;102546.25;16111701;19;133905;-67
2024/01/30 07:59:03;;;;;;;8.93;2.40;;;;;;;18.30;41.51;102546.69;16119130;19;129619;-65
2024/01/30 08:04:25;;;;;;;5.15;1.95;;;;;;;18.41;41.34;102550.84;16117826;19;130876;-67
2024/01/30 08:09:47;;;;;;;4.03;1.67;;;;;;;18.51;40.98;102546.81;16114495;19;130400;-66
2024/01/30 08:15:10;;;;;;;4.43;1.90;;;;;;;18.65;40.71;102543.06;16120351;19;134586;-66
2024/01/30 08:20:32;;;;;;;7.60;1.70;;;;;;;18.77;40.63;102538.63;16120400;19;131875;-66
2024/01/30 08:25:53;;;;;;;3.28;1.50;;;;;;;18.90;39.98;102539.72;16111970;19;129632;-66
2024/01/30 08:31:15;;;;;;;2.67;1.23;;;;;;;19.01;40.00;102544.66;16116416;19;129621;-67
2024/01/30 08:36:37;;;;;;;4.28;1.33;;;;;;;19.12;39.95;102547.88;16113993;19;131741;-66
2024/01/30 08:42:02;;;;;;;5.85;1.63;;;;;;;19.22;39.57;102554.78;16118462;19;129739;-65
2024/01/30 08:47:25;;;;;;;6.40;2.33;;;;;;;19.28;39.28;102552.19;16114695;19;129810;-69
2024/01/30 08:52:47;;;;;;;4.05;1.60;;;;;;;19.37;39.29;102548.19;16115835;19;130511;-70
2024/01/30 08:58:11;;;;;;;8.05;1.98;;;;;;;19.44;38.69;102540.69;16113351;19;130030;-68
2024/01/30 09:03:33;;;;;;;6.93;1.88;;;;;;;19.50;38.62;102533.44;16116300;19;130962;-69
2024/01/30 09:08:57;;;;;;;10.38;1.92;;;;;;;19.58;38.56;102546.25;16111578;19;129414;-70
2024/01/30 09:14:19;;;;;;;8.82;2.10;;;;;;;19.62;38.67;102561.44;16116853;19;129404;-67
2024/01/30 09:19:41;;;;;;;5.22;1.90;;;;;;;19.64;38.22;102574.03;16113639;19;129118;-67
2024/01/30 09:25:04;;;;;;;4.20;2.08;;;;;;;19.64;37.88;102582.34;16112596;19;129764;-67
2024/01/30 09:30:26;;;;;;;9.30;2.22;;;;;;;19.62;37.84;102573.38;16112986;19;131044;-67
2024/01/30 09:35:48;;;;;;;7.43;2.70;;;;;;;19.62;37.70;102580.88;16109553;19;131650;-67
2024/01/30 09:41:11;;;;;;;6.53;2.75;;;;;;;19.61;37.28;102574.44;16118950;19;129685;-67
2024/01/30 09:46:34;;;;;;;3.08;2.13;;;;;;;19.59;37.62;102584.91;16112937;19;129660;-67
2024/01/30 09:51:56;;;;;;;4.85;2.08;;;;;;;19.59;37.26;102596.00;16107493;19;129944;-64
2024/01/30 09:57:18;;;;;;;9.52;2.30;;;;;;;19.64;37.62;102603.69;16109292;19;131743;-70
2024/01/30 10:02:41;;;;;;;8.85;2.67;;;;;;;19.66;37.54;102610.78;16113912;19;130514;-71
2024/01/30 10:08:06;;;;;;;5.60;1.88;;;;;;;19.68;37.74;102613.31;16114581;19;130518;-75
2024/01/30 10:13:29;;;;;;;5.13;2.63;;;;;;;19.67;37.30;102618.03;16114487;19;130243;-73
2024/01/30 10:18:51;;;;;;;7.90;2.50;;;;;;;19.66;37.40;102632.97;16121195;19;129956;-73
2024/01/30 10:24:13;;;;;;;8.70;2.45;;;;;;;19.68;37.77;102636.41;16126143;19;129716;-66
2024/01/30 10:29:37;;;;;;;10.02;2.30;;;;;;;19.72;37.70;102628.50;16128878;19;131401;-66
2024/01/30 10:34:59;;;;;;;17.25;3.17;;;;;;;19.76;37.41;102643.66;16129082;19;131069;-72
2024/01/30 10:40:24;;;;;;;13.82;3.38;;;;;;;19.83;37.43;102652.00;16126275;19;129391;-73
2024/01/30 10:45:50;;;;;;;9.63;3.50;;;;;;;19.93;37.41;102649.66;16133323;19;130656;-70
2024/01/30 10:51:13;;;;;;;9.35;2.50;;;;;;;20.05;37.34;102661.00;16126374;19;131065;-68
2024/01/30 10:56:36;;;;;;;17.58;3.30;;;;;;;20.15;37.00;102652.25;16117542;19;129502;-67
2024/01/30 11:01:59;;;;;;;6.40;2.53;;;;;;;20.26;36.79;102647.94;16126040;19;129652;-67
2024/01/30 11:07:27;;;;;;;8.50;2.72;;;;;;;20.37;36.73;102650.06;16121010;19;129426;-67
2024/01/30 11:12:51;;;;;;;5.70;2.28;;;;;;;20.43;36.60;102653.94;16120472;19;131009;-67
2024/01/30 11:18:23;;;;;;;5.97;2.17;;;;;;;20.52;36.30;102655.41;16125138;19;130203;-67
2024/01/30 11:23:45;;;;;;;6.90;2.20;;;;;;;20.60;36.14;102648.75;16119184;19;129685;-67
2024/01/30 11:29:08;;;;;;;11.75;2.17;;;;;;;20.69;36.00;102658.56;16121742;19;130446;-67
2024/01/30 11:34:29;;;;;;;5.60;2.70;;;;;;;20.82;35.06;102663.25;16121402;19;131144;-67
2024/01/30 11:39:53;;;;;;;10.57;2.50;;;;;;;20.87;35.13;102655.13;16114833;19;133300;-69
2024/01/30 11:45:17;;;;;;;7.45;2.35;;;;;;;20.79;35.15;102674.84;16121999;19;130990;-68
2024/01/30 11:50:44;;;;;;;15.88;2.15;;;;;;;20.79;34.50;102676.75;16110705;19;130330;-67
2024/01/30 11:56:06;;;;;;;13.95;2.45;;;;;;;21.32;33.81;102681.25;16122222;19;128974;-65
2024/01/30 12:01:29;;;;;;;6.45;1.48;;;;;;;21.56;33.33;102685.22;16116875;19;129780;-68
2024/01/30 12:06:54;;;;;;;10.93;1.95;;;;;;;21.93;32.73;102690.09;16118436;19;130690;-64
2024/01/30 12:12:16;;;;;;;7.80;1.70;;;;;;;21.94;32.16;102681.53;16115362;19;132026;-64
2024/01/30 12:17:38;;;;;;;3.72;1.17;;;;;;;21.72;32.46;102689.41;16116773;19;129842;-64
2024/01/30 12:23:00;;;;;;;7.05;1.52;;;;;;;21.51;32.39;102694.25;16115921;19;129537;-64
2024/01/30 12:28:22;;;;;;;5.72;0.90;;;;;;;21.67;32.40;102701.22;16115438;19;130150;-65
2024/01/30 12:33:44;;;;;;;6.13;1.00;;;;;;;22.25;31.89;102698.47;16110627;19;129772;-74
2024/01/30 12:39:06;;;;;;;4.65;0.90;;;;;;;22.81;31.05;102699.41;16112507;19;130452;-64
2024/01/30 12:44:28;;;;;;;2.55;0.70;;;;;;;23.02;30.86;102703.66;16115195;19;129805;-64
2024/01/30 12:49:53;;;;;;;4.57;0.82;;;;;;;22.86;30.40;102704.28;16112981;19;129527;-65
2024/01/30 12:55:16;;;;;;;5.13;0.73;;;;;;;22.69;31.32;102710.47;16112586;19;129572;-65
2024/01/30 13:00:38;;;;;;;3.42;0.75;;;;;;;22.48;31.47;102705.31;16114113;19;129449;-63
2024/01/30 13:06:00;;;;;;;4.88;0.80;;;;;;;22.29;31.87;102719.22;16113815;19;130486;-65
2024/01/30 13:11:24;;;;;;;2.67;0.80;;;;;;;22.11;32.39;102706.91;16111559;19;131696;-64
2024/01/30 13:16:46;;;;;;;4.43;0.75;;;;;;;22.03;32.38;102711.91;16105726;19;130566;-64
2024/01/30 13:22:10;;;;;;;6.65;0.95;;;;;;;22.16;32.21;102720.16;16113362;19;129430;-64
2024/01/30 13:27:32;;;;;;;3.00;0.63;;;;;;;21.99;32.27;102728.22;16108048;19;131688;-64
2024/01/30 13:32:54;;;;;;;6.65;0.60;;;;;;;21.77;32.23;102725.81;16116634;19;131823;-64
2024/01/30 13:38:20;;;;;;;7.88;0.60;;;;;;;21.56;32.68;102731.69;16105973;19;130150;-64
2024/01/30 13:43:43;;;;;;;8.40;1.02;;;;;;;21.33;32.54;102746.97;16104564;19;130542;-67
2024/01/30 13:49:05;;;;;;;10.32;0.90;;;;;;;21.07;32.89;102737.66;16110421;19;129463;-65
2024/01/30 13:54:27;;;;;;;4.47;0.70;;;;;;;20.87;33.12;102755.28;16108934;19;131123;-64
2024/01/30 13:59:49;;;;;;;2.90;0.60;;;;;;;20.70;32.97;102759.53;16105955;19;129264;-64
2024/01/30 14:05:11;;;;;;;5.57;0.50;;;;;;;20.54;33.26;102775.63;16108079;19;129376;-64
2024/01/30 14:10:33;;;;;;;2.95;0.40;;;;;;;20.41;33.77;102783.94;16109124;19;130792;-64
2024/01/30 14:15:55;;;;;;;5.65;0.73;;;;;;;20.32;34.18;102804.66;16108984;19;130571;-64
2024/01/30 14:21:17;;;;;;;5.53;0.70;;;;;;;20.28;34.21;102795.91;16106397;19;130519;-64
2024/01/30 14:26:39;;;;;;;3.95;0.90;;;;;;;20.27;34.38;102800.63;16105642;19;130027;-64
2024/01/30 14:32:03;;;;;;;2.38;0.38;;;;;;;20.28;34.36;102807.03;16110378;19;129453;-64
2024/01/30 14:37:29;;;;;;;0.80;0.43;;;;;;;20.30;34.69;102832.69;16106201;19;130262;-67
2024/01/30 14:42:51;;;;;;;3.95;0.60;;;;;;;20.29;34.49;102840.19;16106812;19;133671;-64
2024/01/30 14:48:13;;;;;;;3.83;0.52;;;;;;;20.29;34.71;102829.06;16102474;19;130000;-65
2024/01/30 14:53:34;;;;;;;1.38;0.45;;;;;;;20.29;34.77;102840.19;16099865;19;130104;-64
2024/01/30 14:58:57;;;;;;;3.58;0.52;;;;;;;20.25;34.93;102852.78;16100638;19;129950;-62
2024/01/30 15:04:19;;;;;;;4.40;0.70;;;;;;;20.18;34.50;102851.03;16100293;19;130455;-65
2024/01/30 15:09:41;;;;;;;7.82;0.80;;;;;;;20.12;34.84;102858.28;16116261;19;129483;-67
2024/01/30 15:15:07;;;;;;;3.25;0.98;;;;;;;20.09;34.84;102867.91;16114985;19;131300;-62
2024/01/30 15:20:31;;;;;;;6.78;0.90;;;;;;;20.04;35.11;102872.38;16119583;19;130633;-63
2024/01/30 15:25:53;;;;;;;13.50;0.98;;;;;;;19.98;35.04;102879.59;16118374;19;129551;-64
2024/01/30 15:31:15;;;;;;;6.35;1.30;;;;;;;19.92;35.18;102888.75;16119226;19;129957;-63
2024/01/30 15:36:37;;;;;;;3.03;0.80;;;;;;;19.86;35.16;102887.66;16118746;19;129240;-64
2024/01/30 15:41:59;;;;;;;4.32;0.73;;;;;;;19.80;34.99;102897.69;16114765;19;131920;-62
2024/01/30 15:47:20;;;;;;;6.60;1.38;;;;;;;19.75;35.70;102902.13;16110778;19;130840;-62
2024/01/30 15:52:42;;;;;;;7.63;0.75;;;;;;;19.67;35.73;102919.81;16119062;19;129580;-63
2024/01/30 15:58:06;;;;;;;1.98;0.57;;;;;;;19.62;35.65;102927.94;16111846;19;129545;-66
2024/01/30 16:03:28;;;;;;;5.88;0.70;;;;;;;19.56;35.59;102931.50;16116272;19;131683;-65
2024/01/30 16:08:50;;;;;;;3.88;0.68;;;;;;;19.50;35.99;102949.84;16114738;19;131667;-64
2024/01/30 16:14:14;;;;;;;9.50;0.88;;;;;;;19.46;36.42;102968.81;16116840;19;133312;-64
2024/01/30 16:19:36;;;;;;;8.38;0.85;;;;;;;19.44;38.11;102967.31;16112751;19;130339;-64
2024/01/30 16:24:58;;;;;;;5.53;0.70;;;;;;;19.38;37.67;102967.06;16112955;19;131328;-64
2024/01/30 16:30:20;;;;;;;10.07;0.73;;;;;;;19.33;37.97;102977.88;16089932;19;130218;-62
2024/01/30 16:35:43;;;;;;;8.10;1.00;;;;;;;19.28;37.59;102980.41;16107847;19;131390;-63
2024/01/30 16:41:08;;;;;;;;;;;;;;;19.19;38.13;102981.59;16115619;19;130295;-67
2024/01/30 16:46:30;;;;;;;13.80;1.30;;;;;;;19.17;38.28;102994.81;16110299;19;130057;-71
2024/01/30 16:51:52;;;;;;;8.73;1.27;;;;;;;19.13;38.67;102999.91;16111411;19;129849;-68
2024/01/30 16:57:14;;;;;;;18.83;3.00;;;;;;;19.09;39.09;103004.13;16116267;19;131246;-68
2024/01/30 17:02:36;;;;;;;18.40;2.65;;;;;;;19.06;38.77;103012.84;16110495;19;131481;-66
2024/01/30 17:07:59;;;;;;;35.88;2.95;;;;;;;19.05;39.05;103019.44;16106890;19;131371;-67
2024/01/30 17:13:21;;;;;;;12.75;1.95;;;;;;;19.06;39.32;103024.81;16107916;19;129836;-66
2024/01/30 17:18:43;;;;;;;49.97;14.27;;;;;;;19.06;39.89;103016.50;16115893;19;129840;-67
2024/01/30 17:24:07;;;;;;;61.25;17.25;;;;;;;19.10;40.58;103033.59;16108536;19;130608;-66
2024/01/30 17:29:29;;;;;;;78.20;22.80;;;;;;;19.15;40.63;103035.75;16130220;19;129969;-66
2024/01/30 17:34:51;;;;;;;54.75;14.30;;;;;;;19.21;40.62;103049.72;16160994;19;129415;-66
2024/01/30 17:40:14;;;;;;;39.70;11.68;;;;;;;19.27;40.34;103056.41;16182508;19;131245;-66
2024/01/30 17:45:38;;;;;;;33.95;10.43;;;;;;;19.30;40.53;103071.78;16182879;19;128901;-66
2024/01/30 17:51:02;;;;;;;33.42;9.52;;;;;;;19.31;40.54;103074.38;16185465;19;131238;-63
2024/01/30 17:56:23;;;;;;;30.98;9.05;;;;;;;19.30;40.19;103083.78;16176669;19;129015;-70
2024/01/30 18:01:47;;;;;;;26.08;8.55;;;;;;;19.27;40.19;103080.50;16185613;19;129995;-64
2024/01/30 18:07:10;;;;;;;33.30;9.15;;;;;;;19.22;40.37;103097.75;16191208;19;132762;-64
2024/01/30 18:12:33;;;;;;;24.33;6.38;;;;;;;19.19;39.89;103109.25;16185227;19;129369;-65
2024/01/30 18:17:55;;;;;;;18.92;6.32;;;;;;;19.17;40.07;103117.75;16138114;19;129396;-64
2024/01/30 18:23:18;;;;;;;23.13;6.35;;;;;;;19.16;39.85;103121.56;16138305;19;129154;-64
2024/01/30 18:28:40;;;;;;;19.38;7.15;;;;;;;19.16;40.02;103126.28;16131506;19;130281;-65
2024/01/30 18:34:02;;;;;;;26.17;6.03;;;;;;;19.15;40.23;103119.84;16165515;19;129840;-65
2024/01/30 18:39:24;;;;;;;21.88;5.93;;;;;;;19.17;39.78;103122.44;16137482;19;130822;-64
2024/01/30 18:44:45;;;;;;;31.67;6.53;;;;;;;19.19;39.75;103115.63;16161336;19;130278;-65
2024/01/30 18:50:07;;;;;;;31.83;5.57;;;;;;;19.22;39.86;103125.50;16138730;19;131936;-64
2024/01/30 18:55:29;;;;;;;20.73;5.43;;;;;;;19.24;40.02;103134.50;16124703;19;130908;-64
2024/01/30 19:00:52;;;;;;;17.98;4.63;;;;;;;19.27;40.15;103150.75;16120834;19;130997;-64
2024/01/30 19:06:14;;;;;;;24.55;5.10;;;;;;;19.27;39.88;103156.31;16114372;19;129771;-64
2024/01/30 19:11:36;;;;;;;21.45;4.82;;;;;;;19.28;40.06;103152.47;16111728;19;131577;-64
2024/01/30 19:16:58;;;;;;;24.58;5.45;;;;;;;19.27;39.98;103156.31;16115618;19;129713;-64
2024/01/30 19:22:20;;;;;;;18.23;4.22;;;;;;;19.26;39.94;103159.28;16115180;19;130643;-64
2024/01/30 19:27:43;;;;;;;19.90;4.32;;;;;;;19.22;40.30;103169.91;16120156;19;130586;-65
2024/01/30 19:33:04;;;;;;;18.30;4.05;;;;;;;19.18;40.32;103174.13;16121287;19;129689;-65
2024/01/30 19:38:27;;;;;;;13.63;3.25;;;;;;;19.13;40.06;103177.47;16115303;19;129565;-64
2024/01/30 19:43:49;;;;;;;10.02;3.53;;;;;;;19.07;40.16;103176.34;16135896;19;129669;-65
2024/01/30 19:49:12;;;;;;;15.25;5.15;;;;;;;19.05;41.03;103186.78;16113419;19;129969;-65
2024/01/30 19:54:34;;;;;;;11.18;4.18;;;;;;;19.06;40.77;103182.94;16107847;19;130119;-67
2024/01/30 19:59:56;;;;;;;12.07;3.28;;;;;;;19.08;40.92;103180.81;16124397;19;130028;-66
2024/01/30 20:05:18;;;;;;;14.45;3.47;;;;;;;19.15;40.76;103185.59;16117731;19;129875;-65
2024/01/30 20:10:41;;;;;;;9.50;2.45;;;;;;;19.21;40.70;103190.38;16121816;19;129349;-64
2024/01/30 20:16:03;;;;;;;10.95;3.90;;;;;;;19.25;40.82;103190.88;16122514;19;129606;-66
2024/01/30 20:21:25;;;;;;;13.48;4.18;;;;;;;19.28;40.68;103196.88;16125570;19;129527;-64
2024/01/30 20:26:47;;;;;;;15.30;2.90;;;;;;;19.30;40.91;103200.34;16122512;19;129514;-64
2024/01/30 20:32:09;;;;;;;13.20;3.45;;;;;;;19.34;40.97;103207.19;16119600;19;130208;-64
2024/01/30 20:37:31;;;;;;;19.77;3.75;;;;;;;19.36;40.79;103218.97;16121031;19;129936;-64
2024/01/30 20:42:52;;;;;;;6.18;2.22;;;;;;;19.40;40.69;103232.47;16122165;19;129529;-65
2024/01/30 20:48:14;;;;;;;17.75;3.00;;;;;;;19.40;40.99;103227.75;16119383;19;135000;-65
2024/01/30 20:53:37;;;;;;;13.10;3.17;;;;;;;19.42;40.98;103224.81;16115895;19;129512;-65
2024/01/30 20:58:58;;;;;;;12.63;2.40;;;;;;;19.43;40.56;103232.06;16119610;19;129789;-65
2024/01/30 21:04:20;;;;;;;9.10;2.97;;;;;;;19.37;40.74;103240.13;16125494;19;129883;-64
2024/01/30 21:09:43;;;;;;;15.65;3.00;;;;;;;19.32;40.87;103242.59;16113898;19;129558;-64
2024/01/30 21:15:05;;;;;;;15.55;2.50;;;;;;;19.28;40.63;103246.84;16112744;19;130833;-65
2024/01/30 21:20:27;;;;;;;8.52;2.38;;;;;;;19.23;40.52;103252.09;16111234;19;130020;-64
2024/01/30 21:25:49;;;;;;;8.77;2.45;;;;;;;19.18;40.81;103266.53;16110828;19;129659;-63
2024/01/30 21:31:13;;;;;;;8.32;2.42;;;;;;;19.14;40.57;103275.44;16113746;19;130904;-63
2024/01/30 21:36:36;;;;;;;9.67;1.70;;;;;;;19.10;40.81;103276.88;16116117;19;129599;-63
2024/01/30 21:41:59;;;;;;;10.88;2.17;;;;;;;19.04;40.68;103290.47;16113639;19;131598;-64
2024/01/30 21:47:24;;;;;;;11.32;2.08;;;;;;;19.00;40.59;103288.28;16111233;19;130691;-64
2024/01/30 21:52:46;;;;;;;8.45;2.38;;;;;;;18.94;40.69;103294.56;16113899;19;129525;-64
2024/01/30 21:58:08;;;;;;;7.05;1.85;;;;;;;18.89;40.91;103289.59;16111518;19;129996;-64
2024/01/30 22:03:30;;;;;;;9.80;1.83;;;;;;;18.84;40.83;103295.72;16113026;19;129661;-64
2024/01/30 22:08:52;;;;;;;8.05;1.92;;;;;;;18.80;41.12;103293.53;16108537;19;129945;-64
2024/01/30 22:14:15;;;;;;;6.22;1.75;;;;;;;18.75;40.67;103303.25;16113792;19;135014;-64
2024/01/30 22:19:37;;;;;;;6.18;1.70;;;;;;;18.71;40.73;103301.91;16130839;19;129525;-65
2024/01/30 22:25:00;;;;;;;3.53;1.60;;;;;;;18.66;40.76;103296.09;16125667;19;129867;-65
2024/01/30 22:30:22;;;;;;;3.90;1.67;;;;;;;18.61;40.94;103302.19;16128566;19;129855;-65
2024/01/30 22:35:44;;;;;;;6.60;1.42;;;;;;;18.57;40.72;103306.38;16124238;19;129282;-64
2024/01/30 22:41:06;;;;;;;5.57;1.58;;;;;;;18.54;41.20;103323.38;16125469;19;129670;-64
2024/01/30 22:46:28;;;;;;;7.05;1.70;;;;;;;18.50;41.19;103322.06;16129093;19;130492;-64
2024/01/30 22:51:50;;;;;;;4.63;1.30;;;;;;;18.46;41.37;103329.84;16125024;19;130444;-64
2024/01/30 22:57:12;;;;;;;5.97;1.65;;;;;;;18.44;41.30;103334.75;16125584;19;131660;-63
2024/01/30 23:02:34;;;;;;;3.05;1.30;;;;;;;18.40;40.91;103327.84;16122436;19;131128;-63
2024/01/30 23:07:56;;;;;;;9.32;1.60;;;;;;;18.37;40.89;103336.50;16123719;19;129823;-64
2024/01/30 23:13:18;;;;;;;3.67;1.20;;;;;;;18.34;41.07;103342.41;16123525;19;129389;-64
2024/01/30 23:18:40;;;;;;;4.47;1.38;;;;;;;18.31;41.09;103340.03;16121647;19;130550;-64
2024/01/30 23:24:03;;;;;;;3.05;0.93;;;;;;;18.27;41.15;103334.00;16118904;19;129858;-64
2024/01/30 23:29:25;;;;;;;2.45;0.90;;;;;;;18.25;41.36;103333.31;16119270;19;130065;-64
2024/01/30 23:34:47;;;;;;;3.17;1.10;;;;;;;18.23;41.00;103323.44;16124717;19;129705;-64
2024/01/30 23:40:12;;;;;;;2.72;1.00;;;;;;;18.22;41.01;103324.47;16113192;19;130985;-64
2024/01/30 23:45:34;;;;;;;;;;;;;;;18.17;41.11;103333.34;16120734;19;131600;-64
2024/01/30 23:50:56;;;;;;;2.75;1.13;;;;;;;18.15;41.09;103333.56;16120781;19;131784;-64
2024/01/30 23:56:18;;;;;;;1.52;1.00;;;;;;;18.13;41.05;103338.41;16120304;19;130573;-64
